createdAt,value
2017-02-26T00:00:57.237Z,0
2017-02-26T00:01:57.191Z,0
2017-02-26T00:02:57.174Z,0
2017-02-26T00:03:57.195Z,0
2017-02-26T00:04:57.158Z,0
2017-02-26T00:05:57.148Z,0
2017-02-26T00:06:57.110Z,0
2017-02-26T00:07:57.114Z,0
2017-02-26T00:08:57.106Z,0
2017-02-26T00:09:57.070Z,0
2017-02-26T00:10:57.074Z,0
2017-02-26T00:11:57.049Z,0
2017-02-26T00:12:57.027Z,0
2017-02-26T00:13:57.019Z,0
2017-02-26T00:14:57.035Z,0
2017-02-26T00:15:56.994Z,0
2017-02-26T00:16:56.981Z,0
2017-02-26T00:17:56.990Z,0
2017-02-26T00:18:56.923Z,0
2017-02-26T00:19:56.946Z,0
2017-02-26T00:20:56.896Z,0
2017-02-26T00:21:56.883Z,0
2017-02-26T00:22:56.869Z,0
2017-02-26T00:23:56.860Z,0
2017-02-26T00:24:56.821Z,0
2017-02-26T00:25:56.830Z,0
2017-02-26T00:26:56.810Z,0
2017-02-26T00:27:56.410Z,0
2017-02-26T00:28:56.775Z,0
2017-02-26T00:29:56.756Z,0
2017-02-26T00:30:56.764Z,0
2017-02-26T00:31:56.723Z,0
2017-02-26T00:32:56.732Z,0
2017-02-26T00:33:56.700Z,0
2017-02-26T00:34:56.698Z,0
2017-02-26T00:35:56.663Z,0
2017-02-26T00:36:56.267Z,0
2017-02-26T00:37:56.624Z,0
2017-02-26T00:38:56.625Z,0
2017-02-26T00:39:56.590Z,0
2017-02-26T00:40:56.588Z,0
2017-02-26T00:41:56.589Z,0
2017-02-26T00:42:56.543Z,0
2017-02-26T00:43:56.519Z,0
2017-02-26T00:44:56.540Z,0
2017-02-26T00:45:56.498Z,0
2017-02-26T00:46:56.486Z,0
2017-02-26T00:47:56.480Z,0
2017-02-26T00:48:56.488Z,0
2017-02-26T00:49:56.474Z,0
2017-02-26T00:50:56.410Z,0
2017-02-26T00:51:56.421Z,0
2017-02-26T00:52:56.398Z,0
2017-02-26T00:53:56.389Z,0
2017-02-26T00:54:56.355Z,0
2017-02-26T00:55:56.375Z,0
2017-02-26T00:56:56.351Z,0
2017-02-26T00:57:56.317Z,0
2017-02-26T00:58:56.301Z,0
2017-02-26T00:59:56.292Z,0
2017-02-26T01:00:56.255Z,0
2017-02-26T01:01:56.320Z,0
2017-02-26T01:02:56.274Z,0
2017-02-26T01:03:56.227Z,0
2017-02-26T01:04:56.216Z,0
2017-02-26T01:05:56.189Z,0
2017-02-26T01:06:56.192Z,0
2017-02-26T01:07:56.164Z,0
2017-02-26T01:08:56.127Z,0
2017-02-26T01:09:56.138Z,0
2017-02-26T01:10:56.124Z,0
2017-02-26T01:11:56.065Z,0
2017-02-26T01:12:56.087Z,0
2017-02-26T01:13:55.682Z,0
2017-02-26T01:14:56.035Z,0
2017-02-26T01:15:56.033Z,0
2017-02-26T01:16:55.990Z,0
2017-02-26T01:17:55.978Z,0
2017-02-26T01:18:55.983Z,0
2017-02-26T01:19:55.959Z,0
2017-02-26T01:20:55.968Z,0
2017-02-26T01:21:55.948Z,0
2017-02-26T01:22:55.907Z,0
2017-02-26T01:23:55.883Z,0
2017-02-26T01:24:55.860Z,0
2017-02-26T01:25:55.852Z,0
2017-02-26T01:26:55.847Z,0
2017-02-26T01:27:55.820Z,0
2017-02-26T01:28:55.820Z,0
2017-02-26T01:29:55.825Z,0
2017-02-26T01:30:55.777Z,0
2017-02-26T01:31:55.748Z,0
2017-02-26T01:32:55.769Z,0
2017-02-26T01:33:55.713Z,0
2017-02-26T01:34:55.718Z,0
2017-02-26T01:35:55.686Z,0
2017-02-26T01:36:55.678Z,0
2017-02-26T01:37:55.673Z,0
2017-02-26T01:38:55.636Z,0
2017-02-26T01:39:55.653Z,0
2017-02-26T01:40:55.631Z,0
2017-02-26T01:41:55.610Z,0
2017-02-26T01:42:55.185Z,0
2017-02-26T01:43:55.558Z,0
2017-02-26T01:44:55.561Z,0
2017-02-26T01:45:55.549Z,0
2017-02-26T01:46:55.495Z,0
2017-02-26T01:47:55.520Z,0
2017-02-26T01:48:55.505Z,0
2017-02-26T01:49:55.506Z,0
2017-02-26T01:50:55.475Z,0
2017-02-26T01:51:55.423Z,0
2017-02-26T01:52:55.429Z,0
2017-02-26T01:53:55.402Z,0
2017-02-26T01:54:55.429Z,0
2017-02-26T01:55:55.379Z,0
2017-02-26T01:56:55.340Z,0
2017-02-26T01:57:55.340Z,0
2017-02-26T01:58:55.339Z,0
2017-02-26T01:59:55.308Z,0
2017-02-26T02:00:55.305Z,0
2017-02-26T02:01:55.278Z,0
2017-02-26T02:02:55.265Z,0
2017-02-26T02:03:55.253Z,0
2017-02-26T02:04:55.254Z,0
2017-02-26T02:05:55.219Z,0
2017-02-26T02:06:55.204Z,0
2017-02-26T02:07:55.179Z,0
2017-02-26T02:08:55.201Z,0
2017-02-26T02:09:55.165Z,0
2017-02-26T02:10:55.105Z,0
2017-02-26T02:11:55.124Z,0
2017-02-26T02:12:55.104Z,0
2017-02-26T02:13:55.102Z,0
2017-02-26T02:14:55.107Z,0
2017-02-26T02:15:55.064Z,0
2017-02-26T02:16:55.062Z,0
2017-02-26T02:17:55.042Z,0
2017-02-26T02:18:55.029Z,0
2017-02-26T02:19:54.636Z,0
2017-02-26T02:20:54.967Z,0
2017-02-26T02:21:54.951Z,0
2017-02-26T02:22:54.938Z,0
2017-02-26T02:23:54.928Z,0
2017-02-26T02:24:54.917Z,0
2017-02-26T02:25:54.914Z,0
2017-02-26T02:26:54.891Z,0
2017-02-26T02:27:54.492Z,0
2017-02-26T02:28:54.874Z,0
2017-02-26T02:29:54.833Z,0
2017-02-26T02:30:54.856Z,0
2017-02-26T02:31:54.821Z,0
2017-02-26T02:32:54.767Z,0
2017-02-26T02:33:54.783Z,0
2017-02-26T02:34:54.744Z,0
2017-02-26T02:35:54.743Z,0
2017-02-26T02:36:54.733Z,0
2017-02-26T02:37:54.722Z,0
2017-02-26T02:38:54.312Z,0
2017-02-26T02:39:54.670Z,0
2017-02-26T02:40:54.669Z,0
2017-02-26T02:41:54.649Z,0
2017-02-26T02:42:54.608Z,0
2017-02-26T02:43:54.658Z,0
2017-02-26T02:44:54.605Z,0
2017-02-26T02:45:54.584Z,0
2017-02-26T02:46:54.177Z,0
2017-02-26T02:47:54.552Z,0
2017-02-26T02:48:54.537Z,0
2017-02-26T02:49:54.524Z,0
2017-02-26T02:50:54.516Z,0
2017-02-26T02:51:54.484Z,0
2017-02-26T02:52:54.460Z,0
2017-02-26T02:53:54.454Z,0
2017-02-26T02:54:54.470Z,0
2017-02-26T02:55:54.413Z,0
2017-02-26T02:56:54.422Z,0
2017-02-26T02:57:54.400Z,0
2017-02-26T02:58:54.395Z,0
2017-02-26T02:59:54.377Z,0
2017-02-26T03:00:54.357Z,0
2017-02-26T03:01:54.327Z,0
2017-02-26T03:02:54.363Z,0
2017-02-26T03:03:54.311Z,0
2017-02-26T03:04:54.290Z,0
2017-02-26T03:05:54.266Z,0
2017-02-26T03:06:54.242Z,0
2017-02-26T03:07:54.219Z,0
2017-02-26T03:08:54.212Z,0
2017-02-26T03:09:54.215Z,0
2017-02-26T03:10:54.184Z,0
2017-02-26T03:11:54.181Z,0
2017-02-26T03:12:54.187Z,0
2017-02-26T03:13:54.160Z,0
2017-02-26T03:14:54.121Z,0
2017-02-26T03:15:54.120Z,0
2017-02-26T03:16:54.100Z,0
2017-02-26T03:17:54.093Z,0
2017-02-26T03:18:54.072Z,0
2017-02-26T03:19:54.063Z,0
2017-02-26T03:20:54.057Z,0
2017-02-26T03:21:54.051Z,0
2017-02-26T03:22:54.001Z,0
2017-02-26T03:24:07.634Z,0
2017-02-26T03:24:53.963Z,0
2017-02-26T03:25:53.986Z,0
2017-02-26T03:26:53.954Z,0
2017-02-26T03:27:53.924Z,0
2017-02-26T03:28:54.102Z,0
2017-02-26T03:29:53.913Z,0
2017-02-26T03:30:53.901Z,0
2017-02-26T03:31:53.857Z,0
2017-02-26T03:32:53.860Z,0
2017-02-26T03:33:53.839Z,0
2017-02-26T03:34:53.822Z,0
2017-02-26T03:35:53.818Z,0
2017-02-26T03:36:53.797Z,0
2017-02-26T03:37:53.780Z,0
2017-02-26T03:38:53.750Z,0
2017-02-26T03:39:53.761Z,0
2017-02-26T03:40:53.736Z,0
2017-02-26T03:41:53.738Z,0
2017-02-26T03:42:53.707Z,0
2017-02-26T03:43:53.658Z,0
2017-02-26T03:44:53.669Z,0
2017-02-26T03:45:53.658Z,0
2017-02-26T03:46:53.642Z,0
2017-02-26T03:47:53.615Z,0
2017-02-26T03:48:53.601Z,0
2017-02-26T03:49:53.596Z,0
2017-02-26T03:50:53.559Z,0
2017-02-26T03:51:53.577Z,0
2017-02-26T03:52:53.533Z,0
2017-02-26T03:53:53.538Z,0
2017-02-26T03:54:53.507Z,0
2017-02-26T03:55:53.521Z,0
2017-02-26T03:56:53.471Z,0
2017-02-26T03:57:53.444Z,0
2017-02-26T03:58:53.635Z,0
2017-02-26T04:00:06.827Z,0
2017-02-26T04:00:53.484Z,0
2017-02-26T04:01:53.394Z,0
2017-02-26T04:02:53.379Z,0
2017-02-26T04:03:53.016Z,0
2017-02-26T04:04:53.357Z,0
2017-02-26T04:05:52.955Z,0
2017-02-26T04:06:53.333Z,0
2017-02-26T04:07:53.313Z,0
2017-02-26T04:08:53.296Z,0
2017-02-26T04:09:53.264Z,0
2017-02-26T04:10:53.261Z,0
2017-02-26T04:11:53.263Z,0
2017-02-26T04:12:52.849Z,0
2017-02-26T04:13:53.220Z,0
2017-02-26T04:14:53.184Z,0
2017-02-26T04:15:53.202Z,0
2017-02-26T04:16:53.173Z,0
2017-02-26T04:17:53.152Z,0
2017-02-26T04:18:53.131Z,0
2017-02-26T04:19:53.147Z,0
2017-02-26T04:20:53.111Z,0
2017-02-26T04:21:53.082Z,0
2017-02-26T04:22:53.042Z,0
2017-02-26T04:23:52.654Z,0
2017-02-26T04:24:53.056Z,0
2017-02-26T04:25:52.991Z,0
2017-02-26T04:26:52.987Z,0
2017-02-26T04:27:53.178Z,0
2017-02-26T04:28:52.978Z,0
2017-02-26T04:29:52.960Z,0
2017-02-26T04:30:52.944Z,0
2017-02-26T04:31:52.943Z,0
2017-02-26T04:33:06.549Z,0
2017-02-26T04:33:52.714Z,0
2017-02-26T04:34:53.089Z,0
2017-02-26T04:35:52.486Z,0
2017-02-26T04:36:52.869Z,0
2017-02-26T04:37:52.831Z,0
2017-02-26T04:38:52.804Z,0
2017-02-26T04:39:52.634Z,0
2017-02-26T04:40:52.774Z,0
2017-02-26T04:41:52.369Z,0
2017-02-26T04:42:52.729Z,0
2017-02-26T04:43:52.748Z,0
2017-02-26T04:44:52.699Z,0
2017-02-26T04:45:52.689Z,0
2017-02-26T04:46:52.667Z,0
2017-02-26T04:47:52.686Z,0
2017-02-26T04:48:52.636Z,0
2017-02-26T04:49:52.608Z,0
2017-02-26T04:50:52.603Z,0
2017-02-26T04:51:52.598Z,0
2017-02-26T04:52:52.597Z,0
2017-02-26T04:53:52.571Z,0
2017-02-26T04:54:52.541Z,0
2017-02-26T04:55:52.148Z,0
2017-02-26T04:56:52.524Z,0
2017-02-26T04:57:52.489Z,0
2017-02-26T04:58:52.480Z,0
2017-02-26T04:59:52.458Z,0
2017-02-26T05:00:52.470Z,0
2017-02-26T05:01:52.429Z,0
2017-02-26T05:02:52.625Z,0
2017-02-26T05:03:52.393Z,0
2017-02-26T05:04:52.374Z,0
2017-02-26T05:05:52.361Z,0
2017-02-26T05:06:52.364Z,0
2017-02-26T05:07:52.341Z,0
2017-02-26T05:08:52.321Z,0
2017-02-26T05:10:05.561Z,0
2017-02-26T05:10:52.300Z,0
2017-02-26T05:11:52.282Z,0
2017-02-26T05:12:52.264Z,0
2017-02-26T05:13:52.281Z,0
2017-02-26T05:14:52.294Z,0
2017-02-26T05:15:52.423Z,0
2017-02-26T05:16:52.217Z,0
2017-02-26T05:17:52.168Z,0
2017-02-26T05:18:52.168Z,0
2017-02-26T05:19:52.134Z,0
2017-02-26T05:20:52.141Z,0
2017-02-26T05:21:52.123Z,0
2017-02-26T05:22:52.113Z,0
2017-02-26T05:23:52.083Z,0
2017-02-26T05:24:52.092Z,0
2017-02-26T05:25:51.670Z,0
2017-02-26T05:26:52.041Z,0
2017-02-26T05:27:52.014Z,4
2017-02-26T05:28:52.004Z,4
2017-02-26T05:29:51.987Z,0
2017-02-26T05:30:51.974Z,0
2017-02-26T05:31:51.962Z,4
2017-02-26T05:32:51.925Z,0
2017-02-26T05:33:51.925Z,4
2017-02-26T05:34:51.916Z,4
2017-02-26T05:35:51.908Z,4
2017-02-26T05:36:51.873Z,8
2017-02-26T05:37:51.848Z,8
2017-02-26T05:38:51.879Z,8
2017-02-26T05:39:51.829Z,12
2017-02-26T05:40:51.827Z,16
2017-02-26T05:41:51.415Z,20
2017-02-26T05:42:51.772Z,24
2017-02-26T05:43:51.798Z,28
2017-02-26T05:44:51.965Z,36
2017-02-26T05:46:05.379Z,44
2017-02-26T05:46:51.711Z,56
2017-02-26T05:47:51.695Z,68
2017-02-26T05:48:51.684Z,76
2017-02-26T05:49:51.664Z,92
2017-02-26T05:50:51.641Z,108
2017-02-26T05:51:51.643Z,128
2017-02-26T05:52:51.621Z,148
2017-02-26T05:53:51.612Z,172
2017-02-26T05:54:51.575Z,188
2017-02-26T05:55:51.569Z,212
2017-02-26T05:56:51.565Z,236
2017-02-26T05:57:51.549Z,264
2017-02-26T05:58:51.537Z,296
2017-02-26T05:59:51.512Z,336
2017-02-26T06:00:51.489Z,372
2017-02-26T06:01:51.502Z,416
2017-02-26T06:02:51.446Z,464
2017-02-26T06:03:51.045Z,524
2017-02-26T06:04:51.411Z,588
2017-02-26T06:05:51.407Z,640
2017-02-26T06:06:51.390Z,692
2017-02-26T06:07:51.380Z,776
2017-02-26T06:08:51.358Z,868
2017-02-26T06:09:51.331Z,968
2017-02-26T06:10:51.326Z,1048
2017-02-26T06:11:51.301Z,1140
2017-02-26T06:12:51.297Z,1288
2017-02-26T06:13:51.474Z,1416
2017-02-26T06:14:51.276Z,1492
2017-02-26T06:15:51.259Z,1520
2017-02-26T06:16:51.217Z,1528
2017-02-26T06:17:51.222Z,1536
2017-02-26T06:18:51.218Z,1588
2017-02-26T06:19:51.177Z,1652
2017-02-26T06:20:51.166Z,1720
2017-02-26T06:21:51.165Z,1784
2017-02-26T06:22:51.109Z,1852
2017-02-26T06:23:51.094Z,1924
2017-02-26T06:24:51.095Z,2000
2017-02-26T06:25:51.082Z,2080
2017-02-26T06:26:51.057Z,2160
2017-02-26T06:27:51.053Z,2256
2017-02-26T06:28:51.044Z,2372
2017-02-26T06:29:51.000Z,2580
2017-02-26T06:30:50.991Z,2860
2017-02-26T06:31:51.000Z,3036
2017-02-26T06:32:51.028Z,3092
2017-02-26T06:33:50.938Z,3128
2017-02-26T06:34:50.945Z,3156
2017-02-26T06:35:50.957Z,3232
2017-02-26T06:36:50.917Z,3296
2017-02-26T06:37:50.907Z,3420
2017-02-26T06:38:50.883Z,3584
2017-02-26T06:39:50.904Z,3804
2017-02-26T06:40:50.866Z,4080
2017-02-26T06:41:50.448Z,4392
2017-02-26T06:42:50.429Z,4744
2017-02-26T06:43:50.628Z,5136
2017-02-26T06:44:50.787Z,5548
2017-02-26T06:45:50.744Z,5932
2017-02-26T06:46:50.387Z,6240
2017-02-26T06:47:50.344Z,6496
2017-02-26T06:48:50.716Z,6732
2017-02-26T06:49:50.693Z,6896
2017-02-26T06:50:50.717Z,6984
2017-02-26T06:51:50.662Z,7004
2017-02-26T06:52:50.671Z,7000
2017-02-26T06:53:50.643Z,6932
2017-02-26T06:54:50.641Z,6860
2017-02-26T06:55:50.804Z,6768
2017-02-26T06:56:50.605Z,6696
2017-02-26T06:57:49.868Z,6852
2017-02-26T06:58:50.590Z,6748
2017-02-26T06:59:50.542Z,6740
2017-02-26T07:00:50.549Z,6664
2017-02-26T07:01:50.116Z,6724
2017-02-26T07:02:50.492Z,7296
2017-02-26T07:03:50.512Z,7716
2017-02-26T07:04:50.457Z,8088
2017-02-26T07:05:50.455Z,8288
2017-02-26T07:06:50.050Z,8880
2017-02-26T07:07:50.432Z,9772
2017-02-26T07:08:50.408Z,10752
2017-02-26T07:09:50.401Z,11664
2017-02-26T07:10:50.367Z,12716
2017-02-26T07:11:50.350Z,12144
2017-02-26T07:12:50.344Z,11356
2017-02-26T07:13:50.377Z,11912
2017-02-26T07:14:50.281Z,13012
2017-02-26T07:15:50.304Z,14328
2017-02-26T07:16:49.513Z,14336
2017-02-26T07:17:49.492Z,14696
2017-02-26T07:18:50.239Z,15412
2017-02-26T07:19:49.466Z,15776
2017-02-26T07:20:49.809Z,15628
2017-02-26T07:21:50.191Z,15364
2017-02-26T07:22:50.252Z,15428
2017-02-26T07:23:49.792Z,15536
2017-02-26T07:24:50.155Z,15652
2017-02-26T07:25:50.117Z,16100
2017-02-26T07:26:50.111Z,15868
2017-02-26T07:27:50.116Z,15316
2017-02-26T07:28:50.108Z,15036
2017-02-26T07:29:50.072Z,14820
2017-02-26T07:30:50.061Z,14892
2017-02-26T07:31:50.069Z,14676
2017-02-26T07:32:49.669Z,14608
2017-02-26T07:33:50.005Z,15124
2017-02-26T07:34:49.999Z,14844
2017-02-26T07:35:49.970Z,15056
2017-02-26T07:36:49.942Z,15504
2017-02-26T07:37:49.955Z,14720
2017-02-26T07:38:49.944Z,14992
2017-02-26T07:39:49.921Z,14808
2017-02-26T07:40:49.884Z,14404
2017-02-26T07:41:49.892Z,14456
2017-02-26T07:42:49.507Z,14576
2017-02-26T07:43:49.486Z,14780
2017-02-26T07:44:49.461Z,15036
2017-02-26T07:45:49.432Z,15356
2017-02-26T07:46:49.809Z,15576
2017-02-26T07:47:49.867Z,15828
2017-02-26T07:48:49.767Z,16036
2017-02-26T07:49:49.774Z,16200
2017-02-26T07:50:49.767Z,16336
2017-02-26T07:51:49.718Z,16496
2017-02-26T07:52:49.714Z,16648
2017-02-26T07:53:49.711Z,16808
2017-02-26T07:54:49.689Z,17152
2017-02-26T07:55:49.653Z,17248
2017-02-26T07:56:49.650Z,17312
2017-02-26T07:57:49.648Z,17408
2017-02-26T07:58:49.248Z,17472
2017-02-26T07:59:49.593Z,17600
2017-02-26T08:00:49.595Z,17728
2017-02-26T08:01:49.557Z,17920
2017-02-26T08:02:49.546Z,18112
2017-02-26T08:03:49.558Z,18144
2017-02-26T08:04:49.534Z,18208
2017-02-26T08:05:49.515Z,18336
2017-02-26T08:06:49.516Z,18496
2017-02-26T08:07:49.472Z,18720
2017-02-26T08:08:48.710Z,19008
2017-02-26T08:09:48.697Z,19424
2017-02-26T08:10:49.450Z,19904
2017-02-26T08:11:49.065Z,20416
2017-02-26T08:12:49.430Z,20992
2017-02-26T08:13:49.391Z,21536
2017-02-26T08:14:48.985Z,22016
2017-02-26T08:15:48.980Z,22304
2017-02-26T08:16:48.958Z,22496
2017-02-26T08:17:49.354Z,22432
2017-02-26T08:18:48.977Z,22176
2017-02-26T08:19:48.898Z,21856
2017-02-26T08:20:49.291Z,21408
2017-02-26T08:21:49.290Z,21024
2017-02-26T08:22:49.257Z,20800
2017-02-26T08:23:49.243Z,20672
2017-02-26T08:24:49.244Z,20800
2017-02-26T08:25:49.222Z,20736
2017-02-26T08:26:49.207Z,20512
2017-02-26T08:27:48.791Z,20512
2017-02-26T08:28:49.180Z,20544
2017-02-26T08:29:48.798Z,20832
2017-02-26T08:30:49.155Z,21504
2017-02-26T08:31:49.145Z,22464
2017-02-26T08:32:49.110Z,23744
2017-02-26T08:33:49.098Z,25088
2017-02-26T08:34:48.752Z,26144
2017-02-26T08:35:49.066Z,26880
2017-02-26T08:36:49.093Z,27392
2017-02-26T08:37:48.656Z,27840
2017-02-26T08:38:49.036Z,28224
2017-02-26T08:39:48.254Z,28544
2017-02-26T08:40:48.627Z,27968
2017-02-26T08:41:48.222Z,27840
2017-02-26T08:42:48.987Z,27456
2017-02-26T08:43:48.946Z,27328
2017-02-26T08:44:48.950Z,27360
2017-02-26T08:45:48.981Z,27360
2017-02-26T08:46:48.909Z,27744
2017-02-26T08:47:48.906Z,29888
2017-02-26T08:48:48.891Z,30048
2017-02-26T08:49:48.903Z,32064
2017-02-26T08:50:48.479Z,32736
2017-02-26T08:51:48.451Z,31392
2017-02-26T08:52:48.066Z,30240
2017-02-26T08:53:48.438Z,30176
2017-02-26T08:54:48.435Z,29856
2017-02-26T08:55:48.404Z,30176
2017-02-26T08:56:48.405Z,30816
2017-02-26T08:57:48.380Z,31040
2017-02-26T08:58:48.404Z,31872
2017-02-26T08:59:48.764Z,32448
2017-02-26T09:00:48.740Z,33664
2017-02-26T09:01:48.340Z,35424
2017-02-26T09:02:48.303Z,36384
2017-02-26T09:03:48.309Z,39264
2017-02-26T09:04:48.274Z,41952
2017-02-26T09:05:48.304Z,39936
2017-02-26T09:06:48.261Z,39840
2017-02-26T09:07:48.617Z,43424
2017-02-26T09:08:48.613Z,42880
2017-02-26T09:09:48.610Z,42400
2017-02-26T09:10:48.185Z,44064
2017-02-26T09:11:48.562Z,46240
2017-02-26T09:12:48.534Z,45344
2017-02-26T09:13:48.537Z,43456
2017-02-26T09:14:48.523Z,43840
2017-02-26T09:15:48.498Z,41440
2017-02-26T09:16:48.500Z,39616
2017-02-26T09:17:48.509Z,40736
2017-02-26T09:18:48.476Z,39968
2017-02-26T09:19:48.470Z,38976
2017-02-26T09:20:48.490Z,37824
2017-02-26T09:21:48.423Z,36800
2017-02-26T09:22:48.422Z,35616
2017-02-26T09:23:48.394Z,34816
2017-02-26T09:24:48.392Z,34528
2017-02-26T09:25:47.975Z,33600
2017-02-26T09:26:48.377Z,32704
2017-02-26T09:27:48.384Z,31456
2017-02-26T09:28:48.324Z,30880
2017-02-26T09:29:48.299Z,30944
2017-02-26T09:30:48.312Z,31104
2017-02-26T09:31:48.292Z,31808
2017-02-26T09:32:48.294Z,32256
2017-02-26T09:33:48.282Z,32576
2017-02-26T09:34:48.257Z,32992
2017-02-26T09:35:48.228Z,33824
2017-02-26T09:36:48.245Z,34080
2017-02-26T09:37:48.183Z,34432
2017-02-26T09:38:48.202Z,34400
2017-02-26T09:39:48.170Z,35488
2017-02-26T09:40:48.162Z,36416
2017-02-26T09:41:48.159Z,37536
2017-02-26T09:42:47.772Z,38208
2017-02-26T09:43:48.141Z,39072
2017-02-26T09:44:48.127Z,39776
2017-02-26T09:45:48.109Z,40192
2017-02-26T09:46:48.085Z,41696
2017-02-26T09:47:48.062Z,42336
2017-02-26T09:48:48.072Z,42048
2017-02-26T09:49:48.033Z,40320
2017-02-26T09:50:48.027Z,40960
2017-02-26T09:51:48.016Z,40640
2017-02-26T09:52:48.007Z,40736
2017-02-26T09:53:48.350Z,41856
2017-02-26T09:54:47.991Z,42336
2017-02-26T09:55:47.574Z,43072
2017-02-26T09:56:47.944Z,43392
2017-02-26T09:57:47.937Z,43200
2017-02-26T09:58:47.915Z,43648
2017-02-26T09:59:47.900Z,43264
2017-02-26T10:00:47.914Z,43264
2017-02-26T10:01:47.875Z,42848
2017-02-26T10:02:47.890Z,43808
2017-02-26T10:03:47.855Z,44768
2017-02-26T10:04:47.839Z,42464
2017-02-26T10:05:47.836Z,40960
2017-02-26T10:06:47.439Z,38656
2017-02-26T10:07:47.843Z,38176
2017-02-26T10:08:47.406Z,37312
2017-02-26T10:09:46.633Z,37632
2017-02-26T10:10:47.769Z,38304
2017-02-26T10:11:47.760Z,39264
2017-02-26T10:12:47.711Z,39968
2017-02-26T10:13:47.722Z,41216
2017-02-26T10:14:47.701Z,43232
2017-02-26T10:15:47.304Z,45184
2017-02-26T10:16:47.648Z,48928
2017-02-26T10:17:47.653Z,48768
2017-02-26T10:18:47.251Z,50656
2017-02-26T10:19:47.624Z,49920
2017-02-26T10:20:47.220Z,51584
2017-02-26T10:21:47.213Z,48032
2017-02-26T10:22:47.576Z,46144
2017-02-26T10:23:47.173Z,46848
2017-02-26T10:24:47.586Z,50240
2017-02-26T10:25:47.565Z,49248
2017-02-26T10:26:47.155Z,46848
2017-02-26T10:27:47.515Z,46752
2017-02-26T10:28:47.488Z,47328
2017-02-26T10:29:47.475Z,47520
2017-02-26T10:30:47.477Z,49440
2017-02-26T10:31:47.464Z,54784
2017-02-26T10:32:47.478Z,57216
2017-02-26T10:33:47.478Z,58240
2017-02-26T10:34:47.029Z,59936
2017-02-26T10:35:47.411Z,55616
2017-02-26T10:36:47.390Z,53408
2017-02-26T10:37:46.991Z,51488
2017-02-26T10:38:46.969Z,48480
2017-02-26T10:39:46.980Z,44320
2017-02-26T10:40:46.928Z,42272
2017-02-26T10:41:46.933Z,41600
2017-02-26T10:42:47.297Z,41792
2017-02-26T10:43:46.915Z,41984
2017-02-26T10:44:46.892Z,44224
2017-02-26T10:45:47.269Z,45088
2017-02-26T10:46:46.860Z,43872
2017-02-26T10:47:46.848Z,42496
2017-02-26T10:48:47.227Z,41504
2017-02-26T10:49:46.815Z,40000
2017-02-26T10:50:46.779Z,38560
2017-02-26T10:51:47.184Z,37952
2017-02-26T10:52:46.760Z,37824
2017-02-26T10:53:47.162Z,38112
2017-02-26T10:54:47.117Z,39040
2017-02-26T10:55:47.103Z,40000
2017-02-26T10:56:47.115Z,40960
2017-02-26T10:57:46.703Z,41952
2017-02-26T10:58:47.075Z,43008
2017-02-26T10:59:47.052Z,43808
2017-02-26T11:00:47.078Z,43648
2017-02-26T11:01:47.037Z,43616
2017-02-26T11:02:46.632Z,42656
2017-02-26T11:03:46.987Z,42400
2017-02-26T11:04:46.973Z,42272
2017-02-26T11:05:46.971Z,41792
2017-02-26T11:06:46.584Z,41856
2017-02-26T11:07:46.960Z,41504
2017-02-26T11:08:46.965Z,40672
2017-02-26T11:09:46.941Z,39744
2017-02-26T11:10:46.914Z,40928
2017-02-26T11:11:46.523Z,40960
2017-02-26T11:12:46.872Z,41536
2017-02-26T11:13:46.855Z,41600
2017-02-26T11:14:46.887Z,41920
2017-02-26T11:15:46.840Z,41888
2017-02-26T11:16:46.823Z,43744
2017-02-26T11:17:46.806Z,48960
2017-02-26T11:18:46.776Z,51936
2017-02-26T11:19:46.763Z,55552
2017-02-26T11:20:46.763Z,56480
2017-02-26T11:21:46.741Z,59136
2017-02-26T11:22:46.728Z,56672
2017-02-26T11:23:46.733Z,57216
2017-02-26T11:24:46.695Z,58368
2017-02-26T11:25:46.677Z,64320
2017-02-26T11:26:46.652Z,63520
2017-02-26T11:27:46.254Z,64064
2017-02-26T11:28:46.648Z,58304
2017-02-26T11:29:46.639Z,55040
2017-02-26T11:30:46.595Z,54688
2017-02-26T11:31:46.652Z,55904
2017-02-26T11:32:46.595Z,59392
2017-02-26T11:33:46.574Z,61088
2017-02-26T11:34:46.573Z,62080
2017-02-26T11:35:46.169Z,60832
2017-02-26T11:36:46.603Z,59328
2017-02-26T11:37:46.511Z,55040
2017-02-26T11:38:46.487Z,52256
2017-02-26T11:39:46.088Z,53024
2017-02-26T11:40:46.489Z,54304
2017-02-26T11:41:46.450Z,55232
2017-02-26T11:42:46.478Z,53792
2017-02-26T11:43:46.399Z,52544
2017-02-26T11:44:46.402Z,51200
2017-02-26T11:45:46.002Z,46368
2017-02-26T11:46:46.351Z,45344
2017-02-26T11:47:46.346Z,47424
2017-02-26T11:48:46.328Z,48192
2017-02-26T11:49:46.337Z,42336
2017-02-26T11:50:45.947Z,44256
2017-02-26T11:51:46.317Z,43488
2017-02-26T11:52:46.268Z,45312
2017-02-26T11:53:46.260Z,44672
2017-02-26T11:54:46.245Z,42336
2017-02-26T11:55:46.223Z,44992
2017-02-26T11:56:46.199Z,51904
2017-02-26T11:57:46.214Z,54112
2017-02-26T11:58:46.210Z,53760
2017-02-26T11:59:45.770Z,58208
2017-02-26T12:00:46.158Z,57184
2017-02-26T12:01:46.141Z,53216
2017-02-26T12:02:46.145Z,52096
2017-02-26T12:03:45.728Z,52736
2017-02-26T12:04:46.102Z,51072
2017-02-26T12:05:45.669Z,52544
2017-02-26T12:06:45.661Z,51872
2017-02-26T12:07:46.030Z,48896
2017-02-26T12:08:46.036Z,51680
2017-02-26T12:09:46.019Z,56032
2017-02-26T12:10:46.011Z,56256
2017-02-26T12:11:45.997Z,60736
2017-02-26T12:12:45.967Z,58304
2017-02-26T12:13:45.988Z,58368
2017-02-26T12:14:45.934Z,56096
2017-02-26T12:15:45.951Z,55424
2017-02-26T12:16:45.918Z,49344
2017-02-26T12:17:45.910Z,46784
2017-02-26T12:18:45.866Z,49088
2017-02-26T12:19:45.865Z,51584
2017-02-26T12:20:45.837Z,47072
2017-02-26T12:21:45.850Z,44864
2017-02-26T12:22:45.821Z,45504
2017-02-26T12:23:45.827Z,47648
2017-02-26T12:24:45.788Z,49216
2017-02-26T12:25:45.804Z,52064
2017-02-26T12:26:45.792Z,52832
2017-02-26T12:27:45.799Z,51360
2017-02-26T12:28:45.745Z,49984
2017-02-26T12:29:45.319Z,49376
2017-02-26T12:30:45.724Z,48960
2017-02-26T12:31:45.685Z,50176
2017-02-26T12:32:45.659Z,51808
2017-02-26T12:33:45.649Z,50208
2017-02-26T12:34:45.641Z,47072
2017-02-26T12:35:45.635Z,44576
2017-02-26T12:36:45.619Z,41248
2017-02-26T12:37:45.221Z,40384
2017-02-26T12:38:45.597Z,38976
2017-02-26T12:39:45.181Z,38336
2017-02-26T12:40:45.548Z,38176
2017-02-26T12:41:45.542Z,40704
2017-02-26T12:42:45.527Z,41376
2017-02-26T12:43:45.161Z,42784
2017-02-26T12:44:45.093Z,44864
2017-02-26T12:45:45.468Z,50976
2017-02-26T12:46:45.474Z,53952
2017-02-26T12:47:45.421Z,48768
2017-02-26T12:48:45.055Z,47232
2017-02-26T12:49:45.408Z,46240
2017-02-26T12:50:45.420Z,43840
2017-02-26T12:51:45.379Z,40864
2017-02-26T12:52:45.360Z,41760
2017-02-26T12:53:45.368Z,42976
2017-02-26T12:54:45.338Z,43392
2017-02-26T12:55:45.331Z,46016
2017-02-26T12:56:45.331Z,43424
2017-02-26T12:57:45.301Z,43264
2017-02-26T12:58:45.308Z,44352
2017-02-26T12:59:45.272Z,44864
2017-02-26T13:00:45.254Z,45600
2017-02-26T13:01:45.245Z,47328
2017-02-26T13:02:45.246Z,46208
2017-02-26T13:03:45.219Z,45664
2017-02-26T13:04:45.192Z,51328
2017-02-26T13:05:45.177Z,53408
2017-02-26T13:06:45.187Z,46720
2017-02-26T13:07:45.134Z,50080
2017-02-26T13:08:45.150Z,49024
2017-02-26T13:09:45.120Z,44576
2017-02-26T13:10:45.125Z,42624
2017-02-26T13:11:45.066Z,40320
2017-02-26T13:12:45.095Z,38944
2017-02-26T13:13:45.090Z,37600
2017-02-26T13:14:45.036Z,35840
2017-02-26T13:15:45.052Z,35840
2017-02-26T13:16:45.000Z,34496
2017-02-26T13:17:44.999Z,33088
2017-02-26T13:18:44.963Z,32928
2017-02-26T13:19:44.972Z,32928
2017-02-26T13:20:44.960Z,32800
2017-02-26T13:21:44.951Z,32896
2017-02-26T13:22:44.532Z,33728
2017-02-26T13:23:44.900Z,33856
2017-02-26T13:24:44.886Z,33984
2017-02-26T13:25:44.856Z,33760
2017-02-26T13:26:44.850Z,31904
2017-02-26T13:27:44.839Z,30560
2017-02-26T13:28:44.839Z,29088
2017-02-26T13:29:44.801Z,28000
2017-02-26T13:30:44.804Z,27584
2017-02-26T13:31:44.785Z,27360
2017-02-26T13:32:44.789Z,26752
2017-02-26T13:33:44.770Z,25856
2017-02-26T13:34:44.729Z,25152
2017-02-26T13:35:44.739Z,24224
2017-02-26T13:36:44.712Z,23616
2017-02-26T13:37:44.297Z,23392
2017-02-26T13:38:44.297Z,23488
2017-02-26T13:39:44.650Z,23360
2017-02-26T13:40:44.630Z,23360